Time;durP1;ratioP1;P1;durP2;ratioP2;P2;SDS_P1;SDS_P2;PMS_P1;PMS_P2;Temp;Humidity;BMP_temperature;BMP_pressure;BME280_temperature;BME280_humidity;BME280_pressure;Samples;Min_cycle;Max_cycle;Signal;HPM_P1;HPM_P2
2021/06/04 00:03:48;;;;;;;6.20;3.72;;;;;;;20.31;54.99;98702.62;3650072;79;42893;-22
2021/06/04 00:08:55;;;;;;;4.10;3.70;;;;;;;20.30;55.04;98700.11;3571409;82;43414;-22
2021/06/04 00:14:05;;;;;;;6.40;3.67;;;;;;;20.31;54.70;98697.14;3546047;82;44074;-22
2021/06/04 00:19:14;;;;;;;4.08;3.25;;;;;;;20.29;54.81;98700.63;3567845;83;43414;-23
2021/06/04 00:24:22;;;;;;;3.80;3.50;;;;;;;20.28;54.54;98701.70;3542287;82;44034;-24
2021/06/04 00:29:28;;;;;;;4.10;3.72;;;;;;;20.27;54.01;98704.13;3539539;83;43361;-24
2021/06/04 00:34:35;;;;;;;4.87;3.55;;;;;;;20.27;53.80;98704.13;3538646;82;43072;-22
2021/06/04 00:39:42;;;;;;;3.67;3.37;;;;;;;20.21;53.51;98702.25;3536722;82;43614;-22
2021/06/04 00:44:51;;;;;;;8.25;3.50;;;;;;;20.22;53.43;98704.47;3540192;83;43327;-22
2021/06/04 00:49:59;;;;;;;3.60;3.30;;;;;;;20.19;53.06;98706.27;3540791;83;26401;-22
2021/06/04 00:55:11;;;;;;;5.12;3.60;;;;;;;20.18;52.91;98704.04;3524919;82;26863;-22
2021/06/04 01:00:24;;;;;;;4.53;3.45;;;;;;;20.15;52.55;98710.80;3542017;83;43681;-22
2021/06/04 01:05:33;;;;;;;5.17;3.30;;;;;;;20.15;52.43;98709.97;3543196;82;26393;-22
2021/06/04 01:10:46;;;;;;;4.15;3.47;;;;;;;20.13;52.56;98713.44;3630200;80;44049;-22
2021/06/04 01:16:12;;;;;;;4.58;3.37;;;;;;;20.15;51.76;98710.80;3605285;80;44797;-23
2021/06/04 01:21:25;;;;;;;4.17;3.40;;;;;;;20.11;51.88;98715.00;3632953;80;26518;-22
2021/06/04 01:26:36;;;;;;;4.60;3.37;;;;;;;20.11;52.15;98715.55;3595673;80;27005;-23
2021/06/04 01:31:46;;;;;;;4.10;3.52;;;;;;;20.02;52.39;98709.47;3612845;80;43271;-22
2021/06/04 01:36:56;;;;;;;3.77;3.40;;;;;;;20.03;52.67;98711.70;3619022;80;43352;-22
2021/06/04 01:42:07;;;;;;;3.85;3.55;;;;;;;20.01;52.41;98709.16;3610408;80;26593;-22
2021/06/04 01:47:16;;;;;;;4.80;3.62;;;;;;;19.98;52.39;98706.33;3554102;82;43431;-22
2021/06/04 01:52:25;;;;;;;5.45;3.60;;;;;;;19.98;51.68;98709.06;3635556;80;43950;-22
2021/06/04 01:57:35;;;;;;;4.78;3.47;;;;;;;20.00;51.97;98709.70;3590398;80;43348;-23
2021/06/04 02:02:42;;;;;;;4.12;3.72;;;;;;;19.93;53.38;98703.94;3621733;80;43386;-23
2021/06/04 02:07:51;;;;;;;4.40;3.70;;;;;;;19.85;52.85;98709.08;3573032;81;26518;-24
2021/06/04 02:12:57;;;;;;;5.08;3.77;;;;;;;19.90;52.39;98707.95;3526745;82;44091;-24
2021/06/04 02:18:11;;;;;;;4.30;3.90;;;;;;;19.91;51.32;98700.06;3536629;82;26385;-24
2021/06/04 02:23:23;;;;;;;4.17;3.45;;;;;;;19.96;51.18;98698.87;3570627;81;26380;-24
2021/06/04 02:28:33;;;;;;;4.10;3.40;;;;;;;20.01;50.46;98701.81;3568670;82;44409;-24
2021/06/04 02:33:42;;;;;;;3.77;3.40;;;;;;;20.04;49.91;98697.80;3570531;82;44575;-24
2021/06/04 02:38:53;;;;;;;3.52;3.22;;;;;;;20.05;49.66;98701.38;3573150;82;43393;-22
2021/06/04 02:44:03;;;;;;;5.28;3.62;;;;;;;20.04;50.15;98701.06;3575303;82;43695;-22
2021/06/04 02:49:11;;;;;;;4.65;3.40;;;;;;;19.97;50.53;98692.34;3568946;82;44834;-22
2021/06/04 02:54:22;;;;;;;3.75;3.45;;;;;;;20.00;50.19;98701.49;3567391;82;26363;-22
2021/06/04 02:59:31;;;;;;;5.28;3.83;;;;;;;19.99;50.21;98697.08;3583077;81;43686;-22
2021/06/04 03:04:41;;;;;;;6.03;3.90;;;;;;;19.89;50.64;98698.06;3543117;82;43368;-22
2021/06/04 03:09:48;;;;;;;4.40;4.00;;;;;;;19.84;50.98;98705.52;3536268;83;43373;-22
2021/06/04 03:14:56;;;;;;;4.45;4.05;;;;;;;19.82;51.00;98705.39;3672157;79;42841;-21
2021/06/04 03:20:08;;;;;;;3.98;3.58;;;;;;;19.80;50.44;98704.80;3675763;79;27622;-22
2021/06/04 03:25:19;;;;;;;4.25;3.85;;;;;;;19.82;50.82;98702.66;3589279;81;43030;-24
2021/06/04 03:30:29;;;;;;;4.40;4.00;;;;;;;19.75;51.25;98698.61;3595521;81;44437;-24
2021/06/04 03:35:36;;;;;;;5.90;4.45;;;;;;;19.75;51.21;98708.17;3584824;81;43053;-23
2021/06/04 03:40:42;;;;;;;4.45;4.05;;;;;;;19.69;51.72;98706.28;3597371;81;43700;-23
2021/06/04 03:45:51;;;;;;;6.55;4.42;;;;;;;19.60;52.71;98709.75;3584146;81;42777;-23
2021/06/04 03:51:01;;;;;;;4.72;4.30;;;;;;;19.60;53.28;98707.02;3592838;81;43407;-24
2021/06/04 03:56:11;;;;;;;4.78;4.30;;;;;;;19.65;54.13;98714.07;3582151;81;43258;-24
2021/06/04 04:01:21;;;;;;;7.15;4.20;;;;;;;19.61;54.03;98711.44;3596129;81;43673;-24
2021/06/04 04:06:28;;;;;;;6.65;4.45;;;;;;;19.62;53.58;98709.56;3683936;79;43723;-23
2021/06/04 04:11:35;;;;;;;4.65;3.90;;;;;;;19.60;53.00;98719.33;3666196;80;44467;-23
2021/06/04 04:16:41;;;;;;;4.40;4.00;;;;;;;19.63;52.66;98716.17;3547089;82;44949;-24
2021/06/04 04:21:49;;;;;;;4.95;3.98;;;;;;;19.63;52.65;98717.54;3489730;84;44064;-23
2021/06/04 04:26:56;;;;;;;7.33;4.10;;;;;;;19.64;52.51;98716.48;3621794;80;44417;-23
2021/06/04 04:32:05;;;;;;;4.67;4.15;;;;;;;19.66;52.61;98714.39;3541045;82;43410;-23
2021/06/04 04:37:13;;;;;;;5.05;3.90;;;;;;;19.65;53.69;98714.58;3620360;80;43694;-23
2021/06/04 04:42:22;;;;;;;4.87;3.92;;;;;;;19.71;52.72;98716.48;3539728;82;43420;-24
2021/06/04 04:47:28;;;;;;;4.42;3.90;;;;;;;19.73;53.19;98718.98;3533141;82;43293;-23
2021/06/04 04:52:35;;;;;;;4.35;3.77;;;;;;;19.70;54.09;98719.72;3626611;80;43278;-23
2021/06/04 04:57:41;;;;;;;3.83;3.42;;;;;;;19.66;54.73;98717.12;3626891;80;44618;-23
2021/06/04 05:02:49;;;;;;;6.65;3.83;;;;;;;19.65;55.33;98719.53;3626574;80;44121;-24
2021/06/04 05:07:55;;;;;;;3.80;3.50;;;;;;;19.61;56.23;98715.54;3538501;81;43407;-24
2021/06/04 05:13:02;;;;;;;4.05;3.65;;;;;;;19.62;56.64;98723.23;3630056;80;43374;-24
2021/06/04 05:18:13;;;;;;;4.83;4.00;;;;;;;19.66;58.19;98723.95;3633912;80;43680;-23
2021/06/04 05:23:20;;;;;;;4.78;4.25;;;;;;;19.68;60.05;98730.05;3629671;80;43434;-23
2021/06/04 05:28:28;;;;;;;6.03;4.20;;;;;;;19.68;61.29;98739.62;3600078;81;43771;-24
2021/06/04 05:33:37;;;;;;;5.47;4.00;;;;;;;19.62;61.60;98733.63;3638773;80;43721;-24
2021/06/04 05:38:43;;;;;;;4.40;3.90;;;;;;;19.75;60.49;98734.14;3591305;80;43978;-23
2021/06/04 05:43:49;;;;;;;5.20;4.17;;;;;;;19.86;59.10;98738.13;3637171;80;43035;-23
2021/06/04 05:48:55;;;;;;;4.03;3.62;;;;;;;19.99;57.67;98737.27;3594604;81;43688;-24
2021/06/04 05:54:01;;;;;;;4.75;4.05;;;;;;;20.18;57.43;98742.34;3617498;80;44048;-24
2021/06/04 05:59:07;;;;;;;5.58;4.30;;;;;;;20.33;62.12;98742.91;3597224;81;44558;-24
2021/06/04 06:04:13;;;;;;;6.00;4.28;;;;;;;20.44;66.67;98742.78;3630982;80;44075;-23
2021/06/04 06:09:19;;;;;;;5.28;4.40;;;;;;;20.57;62.10;98751.98;3628790;80;43700;-23
2021/06/04 06:14:25;;;;;;;9.75;4.50;;;;;;;20.69;64.00;98748.86;3677800;79;44531;-22
2021/06/04 06:19:31;;;;;;;4.83;4.17;;;;;;;20.85;65.79;98748.91;3597060;81;44157;-23
2021/06/04 06:24:37;;;;;;;5.37;3.75;;;;;;;21.04;65.23;98758.56;3677598;79;43473;-21
2021/06/04 06:29:43;;;;;;;5.90;4.37;;;;;;;21.18;64.95;98764.78;3665609;79;44090;-21
2021/06/04 06:34:48;;;;;;;6.40;4.00;;;;;;;21.24;62.85;98770.75;3597639;81;43375;-22
2021/06/04 06:39:54;;;;;;;6.40;4.20;;;;;;;21.25;58.89;98773.27;3673423;79;44101;-21
2021/06/04 06:45:00;;;;;;;5.45;3.90;;;;;;;21.23;56.72;98778.66;3681267;79;44753;-22
2021/06/04 06:50:09;;;;;;;6.55;4.20;;;;;;;21.21;56.76;98775.30;3597400;81;43381;-21
2021/06/04 06:55:16;;;;;;;4.80;4.17;;;;;;;21.22;56.37;98777.84;3680652;79;44365;-21
2021/06/04 07:00:26;;;;;;;4.90;3.98;;;;;;;21.39;56.16;98786.35;3676707;79;44405;-22
2021/06/04 07:05:34;;;;;;;6.28;4.40;;;;;;;21.56;57.70;98791.26;3676388;79;43410;-21
2021/06/04 07:10:40;;;;;;;5.90;4.53;;;;;;;21.59;57.67;98790.84;3671663;79;43090;-22
2021/06/04 07:15:46;;;;;;;5.25;4.30;;;;;;;21.84;57.24;98796.30;3655012;79;44440;-22
2021/06/04 07:20:52;;;;;;;5.25;4.37;;;;;;;22.06;55.85;98790.39;3659167;79;44051;-22
2021/06/04 07:25:59;;;;;;;5.78;4.45;;;;;;;22.03;55.61;98796.86;3647685;79;44423;-22
2021/06/04 07:31:07;;;;;;;6.03;4.87;;;;;;;21.99;54.64;98800.60;3558432;82;43158;-23
2021/06/04 07:36:15;;;;;;;8.90;4.80;;;;;;;21.94;54.02;98812.26;3663912;79;44535;-23
2021/06/04 07:41:22;;;;;;;6.33;4.87;;;;;;;21.94;53.99;98819.63;3657405;79;43703;-23
2021/06/04 07:46:29;;;;;;;6.03;4.90;;;;;;;21.97;55.75;98815.93;3667986;79;44553;-22
2021/06/04 07:51:37;;;;;;;5.65;5.08;;;;;;;21.94;55.18;98812.77;3658359;79;43265;-23
2021/06/04 07:56:44;;;;;;;7.58;5.17;;;;;;;21.89;54.87;98818.11;3660452;79;42923;-22
2021/06/04 08:01:51;;;;;;;6.50;5.20;;;;;;;21.94;54.89;98821.00;3624548;81;43463;-22
2021/06/04 08:06:58;;;;;;;5.28;4.87;;;;;;;22.06;54.56;98815.08;3667302;79;43681;-22
2021/06/04 08:12:07;;;;;;;5.83;5.25;;;;;;;22.48;55.00;98810.32;3592822;81;43347;-23
2021/06/04 08:17:13;;;;;;;7.03;4.75;;;;;;;22.68;55.99;98815.58;3652826;79;43132;-23
2021/06/04 08:22:19;;;;;;;5.55;4.45;;;;;;;22.89;52.78;98807.38;3659316;79;43728;-22
2021/06/04 08:27:25;;;;;;;5.33;4.78;;;;;;;22.80;53.11;98802.44;3663383;79;43127;-23
2021/06/04 08:32:33;;;;;;;6.20;4.80;;;;;;;22.99;53.78;98800.48;3663438;79;43700;-23
2021/06/04 08:37:41;;;;;;;6.45;5.15;;;;;;;23.03;54.82;98803.08;3587389;81;44007;-23
2021/06/04 08:42:55;;;;;;;6.30;4.45;;;;;;;23.11;55.08;98797.80;3574056;81;43400;-23
2021/06/04 08:48:08;;;;;;;5.08;4.67;;;;;;;23.09;53.99;98807.11;3646370;79;44791;-23
2021/06/04 08:53:19;;;;;;;6.20;4.90;;;;;;;23.03;53.82;98801.16;3656400;79;43361;-21
2021/06/04 08:58:48;;;;;;;6.28;4.72;;;;;;;23.06;54.76;98802.07;3657158;79;43416;-23
2021/06/04 09:03:58;;;;;;;6.97;4.80;;;;;;;23.17;53.80;98803.16;3564175;81;44693;-23
2021/06/04 09:09:09;;;;;;;5.42;5.03;;;;;;;23.46;52.65;98797.07;3663059;79;44449;-23
2021/06/04 09:14:15;;;;;;;6.80;4.78;;;;;;;23.83;53.64;98799.07;3663818;79;42944;-22
2021/06/04 09:19:24;;;;;;;5.25;4.75;;;;;;;24.13;53.85;98797.30;3651779;79;43700;-22
2021/06/04 09:24:33;;;;;;;5.37;4.87;;;;;;;24.28;52.72;98796.79;3663680;79;44672;-22
2021/06/04 09:29:39;;;;;;;5.28;4.75;;;;;;;24.49;52.80;98791.19;3554006;81;44023;-22
2021/06/04 09:34:45;;;;;;;5.12;4.70;;;;;;;24.94;51.93;98795.11;3663655;79;43157;-22
2021/06/04 09:39:53;;;;;;;5.33;4.83;;;;;;;25.18;50.50;98793.61;3654804;79;44720;-22
2021/06/04 09:45:02;;;;;;;8.58;4.58;;;;;;;25.42;49.03;98794.36;3662621;79;43345;-22
2021/06/04 09:50:34;;;;;;;5.78;5.17;;;;;;;25.71;49.65;98785.98;3554314;81;44559;-22
2021/06/04 09:55:42;;;;;;;6.55;4.47;;;;;;;26.00;48.28;98785.88;3658627;79;44413;-23
2021/06/04 10:00:52;;;;;;;4.60;4.20;;;;;;;26.00;48.28;98785.88;3583991;81;44026;-22
2021/06/04 10:06:23;;;;;;;4.83;4.33;;;;;;;26.26;48.34;98783.52;3658699;79;43712;-23
2021/06/04 10:11:31;;;;;;;4.62;4.22;;;;;;;26.68;47.91;98776.01;3569288;81;44491;-23
2021/06/04 10:17:00;;;;;;;5.37;4.87;;;;;;;26.34;49.36;98780.30;3541806;83;43713;-23
2021/06/04 10:22:13;;;;;;;8.00;5.22;;;;;;;26.34;49.36;98780.30;3538291;82;44050;-22
2021/06/04 10:27:22;;;;;;;5.28;4.60;;;;;;;25.91;49.72;98779.95;3525659;83;43350;-23
2021/06/04 10:32:31;;;;;;;5.05;4.65;;;;;;;26.01;50.15;98780.65;3525511;82;43868;-22
2021/06/04 10:37:41;;;;;;;5.20;4.72;;;;;;;25.79;51.48;98782.83;3541403;82;44397;-23
2021/06/04 10:43:15;;;;;;;6.40;5.55;;;;;;;25.82;51.62;98778.16;3541953;83;44216;-22
2021/06/04 10:48:36;;;;;;;6.03;5.40;;;;;;;25.65;51.86;98778.17;3542105;83;44057;-22
2021/06/04 10:53:46;;;;;;;5.97;5.40;;;;;;;25.64;53.23;98772.91;3540738;82;43452;-23
2021/06/04 10:58:56;;;;;;;7.35;5.10;;;;;;;25.66;53.38;98777.09;3543988;83;42828;-23
2021/06/04 11:04:06;;;;;;;6.50;5.58;;;;;;;25.61;53.36;98778.93;3570859;81;44098;-22
2021/06/04 11:09:17;;;;;;;7.85;5.62;;;;;;;25.66;54.09;98771.56;3571515;81;43663;-22
2021/06/04 11:14:36;;;;;;;6.85;6.05;;;;;;;25.63;56.20;98776.23;3539419;82;44485;-22
2021/06/04 11:19:45;;;;;;;6.35;5.75;;;;;;;25.44;57.81;98772.03;3677533;79;43677;-22
2021/06/04 11:24:54;;;;;;;6.03;5.53;;;;;;;25.35;60.55;98770.19;3680052;79;43998;-22
2021/06/04 11:30:01;;;;;;;7.85;5.58;;;;;;;25.49;60.24;98768.81;3678270;79;44037;-22
2021/06/04 11:35:12;;;;;;;6.20;5.70;;;;;;;25.50;59.39;98763.59;3674349;79;43189;-23
2021/06/04 11:40:21;;;;;;;6.22;5.58;;;;;;;25.60;59.43;98757.41;3669106;79;43338;-23
2021/06/04 11:45:29;;;;;;;5.90;5.40;;;;;;;25.91;58.67;98757.05;3694658;79;44442;-22
2021/06/04 11:50:37;;;;;;;8.08;5.75;;;;;;;26.26;56.69;98753.13;3684138;79;44029;-22
2021/06/04 11:55:44;;;;;;;5.67;5.15;;;;;;;26.31;57.60;98744.89;3675839;79;43660;-22
2021/06/04 12:00:52;;;;;;;8.00;5.25;;;;;;;26.87;56.72;98748.06;3677832;79;43365;-22
2021/06/04 12:06:01;;;;;;;5.37;4.87;;;;;;;27.19;53.79;98734.25;3678973;79;43478;-22
2021/06/04 12:11:32;;;;;;;6.08;5.47;;;;;;;27.11;58.52;98735.30;3582632;81;43302;-23
2021/06/04 12:16:39;;;;;;;5.97;5.47;;;;;;;27.00;59.46;98724.12;3584290;81;44098;-22
2021/06/04 12:22:36;;;;;;;5.87;5.03;;;;;;;27.02;58.04;98735.76;3603552;81;44419;-23
2021/06/04 12:28:00;;;;;;;5.55;4.78;;;;;;;27.71;54.30;98731.07;3582745;81;44008;-23
2021/06/04 12:33:06;;;;;;;4.92;4.42;;;;;;;28.13;54.60;98721.94;3607064;81;43683;-23
2021/06/04 12:38:29;;;;;;;5.30;4.70;;;;;;;28.10;54.71;98719.70;3527318;83;43376;-23
2021/06/04 12:43:36;;;;;;;4.42;4.03;;;;;;;28.32;55.00;98716.77;3577787;81;43416;-23
2021/06/04 12:48:43;;;;;;;6.10;5.50;;;;;;;28.18;53.15;98713.64;3525415;83;43332;-23
2021/06/04 12:53:51;;;;;;;5.45;4.95;;;;;;;27.78;53.56;98710.93;3582555;81;44012;-23
2021/06/04 12:59:11;;;;;;;5.55;4.60;;;;;;;27.91;50.97;98704.92;3542624;83;44021;-23
2021/06/04 13:04:19;;;;;;;4.85;4.45;;;;;;;28.26;50.64;98700.67;3525523;82;44059;-22
2021/06/04 13:09:29;;;;;;;7.95;4.50;;;;;;;28.76;53.24;98693.34;3527805;83;44097;-22
2021/06/04 13:14:40;;;;;;;5.30;4.60;;;;;;;28.48;52.56;98695.48;3581953;81;44075;-22
2021/06/04 13:19:47;;;;;;;4.97;4.50;;;;;;;28.34;53.49;98684.08;3583391;81;44046;-22
2021/06/04 13:24:57;;;;;;;4.90;4.20;;;;;;;29.03;49.96;98686.17;3585809;81;43686;-22
2021/06/04 13:30:04;;;;;;;6.83;4.65;;;;;;;29.31;49.23;98678.95;3582518;81;43077;-22
2021/06/04 13:35:14;;;;;;;5.25;4.80;;;;;;;29.61;47.47;98677.27;3559631;81;44507;-22
2021/06/04 13:40:22;;;;;;;5.03;4.55;;;;;;;29.61;47.47;98677.27;3599582;81;44402;-22
2021/06/04 13:45:32;;;;;;;4.28;3.87;;;;;;;30.28;45.73;98678.47;3618215;81;43991;-22
2021/06/04 13:50:49;;;;;;;7.45;4.05;;;;;;;29.57;44.71;98678.95;3598970;81;44058;-23
2021/06/04 13:56:11;;;;;;;5.37;4.83;;;;;;;28.12;48.66;98678.16;3657123;79;44023;-22
2021/06/04 14:01:21;;;;;;;4.45;4.08;;;;;;;28.02;48.74;98667.58;3587729;82;43526;-22
2021/06/04 14:06:32;;;;;;;5.40;3.95;;;;;;;28.52;48.75;98661.94;3668105;79;44492;-22
2021/06/04 14:11:40;;;;;;;4.75;3.70;;;;;;;29.21;46.49;98663.98;3662813;79;43776;-22
2021/06/04 14:16:49;;;;;;;3.70;3.37;;;;;;;29.43;44.89;98651.77;3660893;79;43718;-22
2021/06/04 14:21:56;;;;;;;3.50;3.02;;;;;;;29.30;43.69;98648.15;3662666;79;43673;-22
2021/06/04 14:27:07;;;;;;;3.85;2.72;;;;;;;28.77;43.78;98647.87;3664369;79;44063;-22
2021/06/04 14:32:25;;;;;;;2.87;2.67;;;;;;;28.97;44.05;98642.89;3662278;79;44513;-24
2021/06/04 14:37:36;;;;;;;4.85;2.60;;;;;;;28.97;43.82;98644.84;3573901;82;43685;-22
2021/06/04 14:42:42;;;;;;;2.98;2.62;;;;;;;29.31;43.79;98640.10;3661227;79;43266;-23
2021/06/04 14:47:48;;;;;;;2.77;2.58;;;;;;;28.87;44.22;98645.09;3659040;79;44032;-22
2021/06/04 14:52:54;;;;;;;3.25;2.30;;;;;;;28.72;43.48;98643.16;3661863;79;44186;-23
2021/06/04 14:58:03;;;;;;;3.05;2.70;;;;;;;28.20;45.72;98647.72;3659896;79;43743;-22
2021/06/04 15:03:12;;;;;;;4.47;2.35;;;;;;;28.18;45.76;98651.31;3662944;79;43694;-22
2021/06/04 15:08:19;;;;;;;9.20;2.83;;;;;;;27.92;46.77;98648.44;3663145;79;43730;-22
2021/06/04 15:13:28;;;;;;;9.43;2.58;;;;;;;27.44;48.56;98642.05;3665654;79;44347;-22
2021/06/04 15:18:37;;;;;;;2.58;2.37;;;;;;;27.19;49.56;98639.39;3627827;81;44224;-23
2021/06/04 15:23:44;;;;;;;4.33;3.00;;;;;;;27.02;49.56;98636.78;3631055;80;42901;-22
2021/06/04 15:28:50;;;;;;;4.92;3.20;;;;;;;26.65;50.47;98630.63;3619901;81;43110;-23
2021/06/04 15:33:58;;;;;;;3.05;2.75;;;;;;;26.41;50.61;98617.95;3620117;80;43301;-23
2021/06/04 15:39:07;;;;;;;4.33;2.40;;;;;;;26.27;51.80;98616.72;3636905;81;43091;-22
2021/06/04 15:44:26;;;;;;;4.50;2.60;;;;;;;26.23;52.53;98615.55;3636563;80;44047;-23
2021/06/04 15:49:36;;;;;;;3.02;2.62;;;;;;;26.34;52.16;98621.47;3622244;81;43439;-23
2021/06/04 15:54:44;;;;;;;3.12;2.72;;;;;;;26.32;52.84;98626.98;3607872;80;43984;-23
2021/06/04 15:59:52;;;;;;;3.95;3.00;;;;;;;26.32;52.84;98626.98;3540233;82;44065;-23
2021/06/04 16:04:59;;;;;;;4.45;3.60;;;;;;;25.81;56.77;98641.25;3539368;82;43576;-23
2021/06/04 16:10:08;;;;;;;7.65;4.12;;;;;;;25.81;56.77;98641.25;3609093;81;43343;-23
2021/06/04 16:15:17;;;;;;;4.85;4.10;;;;;;;25.58;59.02;98636.00;3619666;79;44152;-23
2021/06/04 16:20:24;;;;;;;4.92;3.52;;;;;;;25.47;59.58;98630.31;3564709;82;43953;-23
2021/06/04 16:25:33;;;;;;;3.83;3.37;;;;;;;25.31;58.56;98636.12;3653704;79;44015;-22
2021/06/04 16:30:41;;;;;;;4.05;3.55;;;;;;;25.31;58.56;98636.12;3657842;79;44489;-22
2021/06/04 16:35:47;;;;;;;5.70;3.75;;;;;;;25.03;61.46;98642.58;3666384;79;43186;-22
2021/06/04 16:40:53;;;;;;;4.58;3.30;;;;;;;24.77;63.57;98658.67;3571945;81;43674;-23
2021/06/04 16:46:00;;;;;;;3.42;3.05;;;;;;;24.77;63.57;98658.67;3656372;79;44082;-22
2021/06/04 16:51:09;;;;;;;3.70;3.35;;;;;;;24.83;62.37;98648.05;3664112;79;43583;-23
2021/06/04 16:56:15;;;;;;;3.95;3.15;;;;;;;24.74;62.49;98656.44;3669418;79;44087;-22
2021/06/04 17:01:21;;;;;;;3.30;3.00;;;;;;;24.22;63.51;98659.56;3582083;81;43747;-22
2021/06/04 17:06:28;;;;;;;3.10;2.60;;;;;;;24.18;64.97;98663.88;3661962;79;44112;-23
2021/06/04 17:11:35;;;;;;;2.62;2.42;;;;;;;24.06;67.03;98660.33;3661797;79;44031;-22
2021/06/04 17:16:42;;;;;;;2.67;2.40;;;;;;;23.96;65.63;98653.53;3654373;79;43439;-22
2021/06/04 17:21:49;;;;;;;3.40;2.33;;;;;;;24.04;63.75;98657.83;3633003;80;44035;-22
2021/06/04 17:26:57;;;;;;;2.72;2.50;;;;;;;23.78;66.46;98667.44;3639638;80;44035;-22
2021/06/04 17:32:04;;;;;;;3.85;2.40;;;;;;;23.55;68.06;98674.09;3628003;80;44051;-22
2021/06/04 17:37:11;;;;;;;2.30;2.10;;;;;;;23.39;67.94;98675.65;3542970;82;44066;-22
2021/06/04 17:42:16;;;;;;;4.20;2.30;;;;;;;23.13;69.93;98687.06;3620963;80;43669;-21
2021/06/04 17:47:22;;;;;;;3.25;2.40;;;;;;;22.99;70.98;98693.33;3530356;84;44203;-21
2021/06/04 17:52:29;;;;;;;2.37;2.17;;;;;;;22.87;72.26;98689.19;3630240;80;44085;-22
2021/06/04 17:57:35;;;;;;;2.60;2.40;;;;;;;22.53;76.62;98699.80;3620787;80;43716;-22
2021/06/04 18:02:42;;;;;;;2.85;2.60;;;;;;;22.17;81.52;98701.81;3538206;82;44016;-22
2021/06/04 18:07:48;;;;;;;3.10;2.83;;;;;;;21.88;85.16;98686.97;3625243;80;44085;-22
2021/06/04 18:12:54;;;;;;;3.72;2.77;;;;;;;21.63;89.47;98687.05;3626442;80;43322;-22
2021/06/04 18:18:01;;;;;;;6.03;3.70;;;;;;;21.48;94.73;98685.47;3642203;79;43722;-22
2021/06/04 18:23:09;;;;;;;4.00;3.60;;;;;;;21.34;99.86;98675.72;3578472;82;44361;-22
2021/06/04 18:28:15;;;;;;;5.42;4.00;;;;;;;21.16;100.00;98669.12;3541351;82;44089;-22
2021/06/04 18:33:22;;;;;;;4.25;3.83;;;;;;;21.05;100.00;98677.52;3602047;81;43402;-22
2021/06/04 18:38:28;;;;;;;4.53;4.03;;;;;;;20.90;100.00;98676.48;3579265;81;43692;-22
2021/06/04 18:43:37;;;;;;;5.00;3.60;;;;;;;20.73;100.00;98678.07;3572029;82;43729;-22
2021/06/04 18:48:44;;;;;;;5.25;4.00;;;;;;;20.68;100.00;98676.52;3595316;81;43473;-22
2021/06/04 18:53:51;;;;;;;3.70;3.40;;;;;;;20.57;100.00;98663.02;3577456;81;43684;-22
2021/06/04 18:58:58;;;;;;;5.20;3.42;;;;;;;20.55;100.00;98663.22;3600154;81;44075;-23
2021/06/04 19:04:07;;;;;;;4.12;3.33;;;;;;;20.56;100.00;98660.80;3575828;82;43431;-23
2021/06/04 19:09:15;;;;;;;4.45;3.72;;;;;;;20.53;100.00;98660.41;3542378;82;43677;-23
2021/06/04 19:14:22;;;;;;;4.60;3.90;;;;;;;20.44;100.00;98662.05;3599090;81;43454;-23
2021/06/04 19:19:27;;;;;;;4.83;3.72;;;;;;;20.26;100.00;98655.94;3593420;81;43466;-23
2021/06/04 19:24:33;;;;;;;4.22;3.67;;;;;;;20.15;100.00;98666.20;3651385;79;44091;-23
2021/06/04 19:29:42;;;;;;;4.65;3.72;;;;;;;20.04;100.00;98666.34;3673046;79;43706;-24
2021/06/04 19:34:47;;;;;;;4.03;3.70;;;;;;;20.00;100.00;98674.66;3688228;79;43346;-23
2021/06/04 19:39:54;;;;;;;4.17;3.65;;;;;;;19.85;100.00;98668.06;3561987;81;44139;-24
2021/06/04 19:44:59;;;;;;;4.10;3.70;;;;;;;19.75;100.00;98664.44;3654101;79;43353;-24
2021/06/04 19:50:09;;;;;;;4.50;4.10;;;;;;;19.74;100.00;98662.75;3672751;79;44091;-24
2021/06/04 19:55:17;;;;;;;4.53;4.08;;;;;;;19.67;100.00;98660.04;3645551;79;43078;-24
2021/06/04 20:00:26;;;;;;;4.33;3.60;;;;;;;19.64;100.00;98651.44;3574143;81;43475;-24
2021/06/04 20:05:34;;;;;;;5.62;4.00;;;;;;;19.73;100.00;98653.38;3599677;81;44150;-22
2021/06/04 20:10:42;;;;;;;4.62;4.10;;;;;;;19.78;100.00;98654.95;3663428;79;43358;-24
2021/06/04 20:15:49;;;;;;;4.65;4.22;;;;;;;19.61;100.00;98651.31;3663488;79;43524;-23
2021/06/04 20:20:57;;;;;;;3.67;3.37;;;;;;;19.49;100.00;98657.98;3667470;79;43209;-22
2021/06/04 20:26:03;;;;;;;3.58;3.27;;;;;;;19.35;100.00;98658.52;3645618;79;44185;-22
2021/06/04 20:31:12;;;;;;;3.27;2.98;;;;;;;19.41;100.00;98662.28;3642685;79;43444;-23
2021/06/04 20:36:24;;;;;;;4.40;3.42;;;;;;;19.47;100.00;98669.64;3652251;79;44029;-23
2021/06/04 20:41:31;;;;;;;4.58;4.12;;;;;;;19.53;100.00;98666.58;3645694;79;43485;-22
2021/06/04 20:46:39;;;;;;;4.30;3.77;;;;;;;19.50;100.00;98671.95;3657508;79;44404;-22
2021/06/04 20:51:46;;;;;;;4.28;3.87;;;;;;;19.47;100.00;98671.52;3640458;79;43483;-22
2021/06/04 20:56:55;;;;;;;4.25;3.85;;;;;;;19.43;100.00;98673.84;3644353;79;43157;-22
2021/06/04 21:02:03;;;;;;;4.87;3.90;;;;;;;19.37;100.00;98675.53;3644034;79;43087;-23
2021/06/04 21:07:10;;;;;;;4.05;3.08;;;;;;;19.36;100.00;98671.66;3647406;79;42676;-21
2021/06/04 21:12:16;;;;;;;5.20;4.70;;;;;;;19.35;100.00;98672.71;3653438;79;44390;-22
2021/06/04 21:17:22;;;;;;;5.33;4.90;;;;;;;19.24;100.00;98675.03;3646710;79;43722;-21
2021/06/04 21:22:28;;;;;;;5.67;5.17;;;;;;;19.19;100.00;98678.09;3668279;79;44061;-22
2021/06/04 21:27:34;;;;;;;4.40;3.98;;;;;;;19.14;100.00;98677.36;3674305;79;42918;-23
2021/06/04 21:32:42;;;;;;;5.60;4.50;;;;;;;19.09;100.00;98676.63;3598128;81;44071;-23
2021/06/04 21:37:48;;;;;;;5.40;4.78;;;;;;;19.06;100.00;98674.82;3660426;79;44384;-23
2021/06/04 21:42:55;;;;;;;5.42;4.92;;;;;;;19.00;100.00;98677.86;3666207;79;43367;-23
2021/06/04 21:48:02;;;;;;;5.60;5.10;;;;;;;18.94;100.00;98675.98;3647677;79;43990;-21
2021/06/04 21:53:10;;;;;;;5.37;4.87;;;;;;;18.76;100.00;98677.39;3562252;81;44427;-20
2021/06/04 21:58:17;;;;;;;7.37;5.60;;;;;;;18.76;100.00;98671.11;3654426;79;43456;-19
2021/06/04 22:03:25;;;;;;;6.50;5.67;;;;;;;18.76;100.00;98671.94;3567984;81;43662;-20
2021/06/04 22:08:32;;;;;;;9.08;6.35;;;;;;;18.70;100.00;98671.42;3635602;79;44139;-22
2021/06/04 22:13:38;;;;;;;7.22;6.53;;;;;;;18.67;100.00;98671.00;3567023;81;43137;-21
2021/06/04 22:18:45;;;;;;;8.20;6.90;;;;;;;18.60;100.00;98666.90;3641973;79;43326;-21
2021/06/04 22:23:53;;;;;;;7.72;6.87;;;;;;;18.50;100.00;98667.83;3569960;82;44043;-21
2021/06/04 22:29:01;;;;;;;9.38;8.38;;;;;;;18.37;100.00;98669.48;3653512;79;43135;-21
2021/06/04 22:34:09;;;;;;;8.00;7.20;;;;;;;18.35;100.00;98666.11;3655765;79;44123;-21
2021/06/04 22:39:19;;;;;;;9.38;8.50;;;;;;;18.32;100.00;98664.64;3656130;79;43677;-22
2021/06/04 22:44:24;;;;;;;8.63;7.83;;;;;;;18.29;100.00;98664.19;3660573;79;44103;-21
2021/06/04 22:49:30;;;;;;;9.45;8.30;;;;;;;18.32;100.00;98671.97;3549058;82;43745;-24
2021/06/04 22:54:36;;;;;;;8.33;7.35;;;;;;;18.18;100.00;98677.38;3658644;79;43684;-24
2021/06/04 22:59:42;;;;;;;8.70;7.80;;;;;;;18.23;100.00;98672.66;3656543;78;44055;-24
2021/06/04 23:04:48;;;;;;;10.72;8.30;;;;;;;18.23;100.00;98677.30;3559029;81;43408;-24
2021/06/04 23:09:54;;;;;;;9.40;8.50;;;;;;;18.22;100.00;98679.19;3651259;79;44111;-24
2021/06/04 23:15:00;;;;;;;8.23;7.25;;;;;;;18.17;100.00;98678.41;3651740;79;43720;-24
2021/06/04 23:20:09;;;;;;;9.38;8.48;;;;;;;18.18;100.00;98677.91;3551063;81;43359;-22
2021/06/04 23:25:18;;;;;;;9.23;8.33;;;;;;;18.16;100.00;98671.31;3615607;81;44094;-22
2021/06/04 23:30:28;;;;;;;9.45;8.63;;;;;;;18.14;100.00;98662.48;3677426;79;43087;-24
2021/06/04 23:35:34;;;;;;;8.75;7.72;;;;;;;18.06;100.00;98670.83;3656452;79;43694;-24
2021/06/04 23:40:42;;;;;;;8.90;7.42;;;;;;;18.10;100.00;98658.48;3653241;79;43701;-24
2021/06/04 23:45:47;;;;;;;8.38;7.47;;;;;;;18.05;100.00;98662.33;3651395;79;42946;-21
2021/06/04 23:50:54;;;;;;;9.18;8.20;;;;;;;18.00;100.00;98662.11;3648954;79;44065;-21
2021/06/04 23:56:00;;;;;;;9.78;8.70;;;;;;;18.02;100.00;98661.39;3632914;79;43966;-21
